createdAt,value
2023-07-25T00:02:26.278Z,14.90
2023-07-25T00:06:44.038Z,10.80
2023-07-25T00:09:19.752Z,11.50
2023-07-25T00:11:48.549Z,12.40
2023-07-25T00:14:23.386Z,9.80
2023-07-25T00:16:54.223Z,11.50
2023-07-25T00:19:29.238Z,11.60
2023-07-25T00:22:20.176Z,11.90
2023-07-25T00:25:02.661Z,13.40
2023-07-25T00:27:39.548Z,11.80
2023-07-25T00:30:22.383Z,13.70
2023-07-25T00:33:05.927Z,12.40
2023-07-25T00:35:52.000Z,12.00
2023-07-25T00:38:24.984Z,12.30
2023-07-25T00:41:01.140Z,11.10
2023-07-25T00:43:36.919Z,11.70
2023-07-25T00:46:10.834Z,12.50
2023-07-25T00:49:24.806Z,12.80
2023-07-25T00:54:35.464Z,12.80
2023-07-25T00:57:18.263Z,11.40
2023-07-25T00:59:53.803Z,10.00
2023-07-25T01:02:35.590Z,10.60
2023-07-25T01:05:07.257Z,10.90
2023-07-25T01:07:40.360Z,12.40
2023-07-25T01:12:52.354Z,13.60
2023-07-25T01:15:21.791Z,13.50
2023-07-25T01:18:06.158Z,11.90
2023-07-25T01:20:37.151Z,12.10
2023-07-25T01:23:25.923Z,12.80
2023-07-25T01:26:15.907Z,12.40
2023-07-25T01:28:49.715Z,11.90
2023-07-25T01:31:36.630Z,11.30
2023-07-25T01:34:09.851Z,9.90
2023-07-25T01:36:53.065Z,11.20
2023-07-25T01:39:28.953Z,10.40
2023-07-25T01:42:17.788Z,12.20
2023-07-25T01:44:58.544Z,11.40
2023-07-25T01:47:35.050Z,15.00
2023-07-25T01:50:06.063Z,14.00
2023-07-25T01:52:41.550Z,11.50
2023-07-25T01:55:15.737Z,11.00
2023-07-25T01:57:56.791Z,12.80
2023-07-25T02:00:53.037Z,12.10
2023-07-25T02:03:36.867Z,12.20
2023-07-25T02:06:15.587Z,11.50
2023-07-25T02:08:43.782Z,15.40
2023-07-25T02:11:16.458Z,13.60
2023-07-25T02:13:57.119Z,10.90
2023-07-25T02:16:29.293Z,13.40
2023-07-25T02:19:00.712Z,11.20
2023-07-25T02:21:45.913Z,13.40
2023-07-25T02:24:17.490Z,12.50
2023-07-25T02:27:05.617Z,12.50
2023-07-25T02:30:07.814Z,11.00
2023-07-25T02:32:41.522Z,11.50
2023-07-25T02:35:15.900Z,10.40
2023-07-25T02:38:04.458Z,10.20
2023-07-25T02:40:38.182Z,11.10
2023-07-25T02:43:17.913Z,12.20
2023-07-25T02:45:54.294Z,12.60
2023-07-25T02:48:40.789Z,14.90
2023-07-25T02:51:14.085Z,10.50
2023-07-25T02:53:45.846Z,11.40
2023-07-25T02:56:28.855Z,12.30
2023-07-25T02:59:25.304Z,11.40
2023-07-25T03:02:07.025Z,11.10
2023-07-25T03:04:42.952Z,11.70
2023-07-25T03:07:11.260Z,11.70
2023-07-25T03:10:07.863Z,10.80
2023-07-25T03:15:17.682Z,10.00
2023-07-25T03:17:57.527Z,10.90
2023-07-25T03:20:33.944Z,12.10
2023-07-25T03:23:15.538Z,13.00
2023-07-25T03:26:01.053Z,13.80
2023-07-25T03:28:31.038Z,13.20
2023-07-25T03:31:07.135Z,10.60
2023-07-25T03:33:53.600Z,16.60
2023-07-25T03:36:25.619Z,11.90
2023-07-25T03:38:59.578Z,12.40
2023-07-25T03:41:32.712Z,13.00
2023-07-25T03:44:04.546Z,13.30
2023-07-25T03:46:47.981Z,20.90
2023-07-25T03:52:00.121Z,51.10
2023-07-25T03:54:40.133Z,78.20
2023-07-25T03:57:33.216Z,96.20
2023-07-25T04:00:15.004Z,51.90
2023-07-25T04:03:09.036Z,45.20
2023-07-25T04:06:09.090Z,23.00
2023-07-25T04:08:59.711Z,18.10
2023-07-25T04:11:37.086Z,17.10
2023-07-25T04:14:38.474Z,11.90
2023-07-25T04:17:24.250Z,12.00
2023-07-25T04:19:54.059Z,12.00
2023-07-25T04:22:30.306Z,10.40
2023-07-25T04:25:13.534Z,11.50
2023-07-25T04:27:51.353Z,10.10
2023-07-25T04:30:26.594Z,8.40
2023-07-25T04:33:05.710Z,9.80
2023-07-25T04:35:58.781Z,9.50
2023-07-25T04:41:16.224Z,8.40
2023-07-25T04:43:48.993Z,9.50
2023-07-25T04:46:22.524Z,7.60
2023-07-25T04:49:08.303Z,11.70
2023-07-25T04:51:44.451Z,9.10
2023-07-25T04:54:26.147Z,8.30
2023-07-25T04:57:00.462Z,8.50
2023-07-25T05:00:17.171Z,8.40
2023-07-25T05:02:49.990Z,9.40
2023-07-25T05:05:31.955Z,6.30
2023-07-25T05:08:19.296Z,8.50
2023-07-25T05:11:12.849Z,7.40
2023-07-25T05:13:45.669Z,8.30
2023-07-25T05:16:20.425Z,7.00
2023-07-25T05:18:56.420Z,15.90
2023-07-25T05:21:31.724Z,6.90
2023-07-25T05:24:25.274Z,8.60
2023-07-25T05:27:21.056Z,7.20
2023-07-25T05:30:00.309Z,7.20
2023-07-25T05:32:41.680Z,7.60
2023-07-25T05:35:13.658Z,8.70
2023-07-25T05:37:55.948Z,10.20
2023-07-25T05:40:28.627Z,7.20
2023-07-25T05:43:12.375Z,9.10
2023-07-25T05:45:58.057Z,7.80
2023-07-25T05:48:48.551Z,8.40
2023-07-25T05:51:20.307Z,8.60
2023-07-25T05:53:58.415Z,6.70
2023-07-25T05:56:38.276Z,7.40
2023-07-25T05:59:09.205Z,8.60
2023-07-25T06:01:42.219Z,8.20
2023-07-25T06:04:10.671Z,6.30
2023-07-25T06:06:43.662Z,8.10
2023-07-25T06:09:14.913Z,6.90
2023-07-25T06:12:01.136Z,9.40
2023-07-25T06:14:33.895Z,8.70
2023-07-25T06:17:05.437Z,10.80
2023-07-25T06:19:33.322Z,7.90
2023-07-25T06:22:13.981Z,9.90
2023-07-25T06:24:42.636Z,12.00
2023-07-25T06:27:15.455Z,8.40
2023-07-25T06:29:43.417Z,6.50
2023-07-25T06:32:14.114Z,10.30
2023-07-25T06:34:42.129Z,11.40
2023-07-25T06:37:10.211Z,6.20
2023-07-25T06:39:41.520Z,10.20
2023-07-25T06:42:14.432Z,9.70
2023-07-25T06:44:43.530Z,7.30
2023-07-25T06:47:13.667Z,7.50
2023-07-25T06:49:41.604Z,7.20
2023-07-25T06:52:09.490Z,6.40
2023-07-25T06:54:41.860Z,8.30
2023-07-25T06:57:09.737Z,11.10
2023-07-25T06:59:37.805Z,7.40
2023-07-25T07:02:05.711Z,6.60
2023-07-25T07:04:36.814Z,10.00
2023-07-25T07:07:05.253Z,9.80
2023-07-25T07:09:38.095Z,9.50
2023-07-25T07:12:20.181Z,9.00
2023-07-25T07:14:52.555Z,9.90
2023-07-25T07:17:25.291Z,24.10
2023-07-25T07:19:55.980Z,12.10
2023-07-25T07:22:35.023Z,9.10
2023-07-25T07:25:17.519Z,11.00
2023-07-25T07:27:45.383Z,7.70
2023-07-25T07:30:19.604Z,10.40
2023-07-25T07:32:48.725Z,9.30
2023-07-25T07:35:22.827Z,8.90
2023-07-25T07:37:50.797Z,7.00
2023-07-25T07:40:27.759Z,6.00
2023-07-25T07:43:02.290Z,8.30
2023-07-25T07:45:35.562Z,6.20
2023-07-25T07:48:03.503Z,7.20
2023-07-25T07:50:34.572Z,6.10
2023-07-25T07:53:02.462Z,4.70
2023-07-25T07:55:30.431Z,5.90
2023-07-25T07:58:03.930Z,6.30
2023-07-25T08:00:35.284Z,6.50
2023-07-25T08:03:03.905Z,6.60
2023-07-25T08:05:46.801Z,9.30
2023-07-25T08:08:19.565Z,5.30
2023-07-25T08:10:47.408Z,5.20
2023-07-25T08:13:15.727Z,9.30
2023-07-25T08:15:47.090Z,6.00
2023-07-25T08:18:16.167Z,6.80
2023-07-25T08:20:46.177Z,5.40
2023-07-25T08:23:14.780Z,6.80
2023-07-25T08:25:42.734Z,6.70
2023-07-25T08:28:13.363Z,6.70
2023-07-25T08:30:41.234Z,7.10
2023-07-25T08:33:09.180Z,5.50
2023-07-25T08:35:37.224Z,4.40
2023-07-25T08:38:05.658Z,6.80
2023-07-25T08:40:33.525Z,5.60
2023-07-25T08:43:08.762Z,6.30
2023-07-25T08:45:42.291Z,8.30
2023-07-25T08:48:14.024Z,5.70
2023-07-25T08:50:52.439Z,6.10
2023-07-25T08:53:26.161Z,5.50
2023-07-25T08:56:02.100Z,6.90
2023-07-25T08:58:34.784Z,6.00
2023-07-25T09:01:07.672Z,6.40
2023-07-25T09:03:35.638Z,8.60
2023-07-25T09:06:04.141Z,8.30
2023-07-25T09:08:32.403Z,7.00
2023-07-25T09:11:00.885Z,6.60
2023-07-25T09:13:28.993Z,5.50
2023-07-25T09:16:03.291Z,5.90
2023-07-25T09:18:39.032Z,6.40
2023-07-25T09:21:14.265Z,7.20
2023-07-25T09:24:15.876Z,6.00
2023-07-25T09:27:18.877Z,5.90
2023-07-25T09:30:02.044Z,6.10
2023-07-25T09:32:40.740Z,7.10
2023-07-25T09:35:11.089Z,6.00
2023-07-25T09:37:42.955Z,9.70
2023-07-25T09:40:14.718Z,5.40
2023-07-25T09:42:54.374Z,6.80
2023-07-25T09:45:37.208Z,9.70
2023-07-25T09:48:05.685Z,6.10
2023-07-25T09:50:36.554Z,5.00
2023-07-25T09:53:04.370Z,5.50
2023-07-25T09:55:32.229Z,6.60
2023-07-25T09:58:02.354Z,6.20
2023-07-25T10:00:31.638Z,4.70
2023-07-25T10:03:00.102Z,6.00
2023-07-25T10:05:30.356Z,5.40
2023-07-25T10:08:01.212Z,7.10
2023-07-25T10:10:41.998Z,6.00
2023-07-25T10:13:25.208Z,9.10
2023-07-25T10:16:00.588Z,4.10
2023-07-25T10:18:29.865Z,6.70
2023-07-25T10:21:02.631Z,5.30
2023-07-25T10:23:45.032Z,5.20
2023-07-25T10:26:17.829Z,5.30
2023-07-25T10:28:45.791Z,6.60
2023-07-25T10:31:24.798Z,9.90
2023-07-25T10:33:59.353Z,3.80
2023-07-25T10:36:34.077Z,3.30
2023-07-25T10:39:11.772Z,6.60
2023-07-25T10:41:51.829Z,5.00
2023-07-25T10:44:52.766Z,5.30
2023-07-25T10:47:50.045Z,6.70
2023-07-25T10:50:23.417Z,5.40
2023-07-25T10:53:13.971Z,6.10
2023-07-25T10:56:13.221Z,6.50
2023-07-25T10:59:13.915Z,5.90
2023-07-25T11:01:47.340Z,4.60
2023-07-25T11:04:22.340Z,28.50
2023-07-25T11:06:56.310Z,6.20
2023-07-25T11:09:40.148Z,5.70
2023-07-25T11:12:09.243Z,4.20
2023-07-25T11:14:44.665Z,3.50
2023-07-25T11:17:20.897Z,6.70
2023-07-25T11:19:48.923Z,8.00
2023-07-25T11:22:24.989Z,3.80
2023-07-25T11:24:57.897Z,4.50
2023-07-25T11:27:48.784Z,3.80
2023-07-25T11:30:20.726Z,4.80
2023-07-25T11:32:53.036Z,4.30
2023-07-25T11:35:23.553Z,6.40
2023-07-25T11:37:51.731Z,4.20
2023-07-25T11:40:23.578Z,6.50
2023-07-25T11:42:54.746Z,6.80
2023-07-25T11:45:23.314Z,5.40
2023-07-25T11:47:54.783Z,5.00
2023-07-25T11:50:29.369Z,5.10
2023-07-25T11:52:58.315Z,5.30
2023-07-25T11:55:29.406Z,8.20
2023-07-25T11:58:01.302Z,5.40
2023-07-25T12:00:53.639Z,3.50
2023-07-25T12:03:42.457Z,6.30
2023-07-25T12:06:13.439Z,6.40
2023-07-25T12:08:56.673Z,8.30
2023-07-25T12:11:31.214Z,7.10
2023-07-25T12:14:05.830Z,6.50
2023-07-25T12:16:45.413Z,4.50
2023-07-25T12:19:14.434Z,5.50
2023-07-25T12:24:19.151Z,5.00
2023-07-25T12:26:56.612Z,4.90
2023-07-25T12:29:28.268Z,4.60
2023-07-25T12:31:56.753Z,6.20
2023-07-25T12:34:24.703Z,5.40
2023-07-25T12:36:55.406Z,6.20
2023-07-25T12:39:48.507Z,15.70
2023-07-25T12:42:19.432Z,5.10
2023-07-25T12:44:50.282Z,4.90
2023-07-25T12:47:18.139Z,6.70
2023-07-25T12:49:50.925Z,5.40
2023-07-25T12:52:20.438Z,7.60
2023-07-25T12:54:49.430Z,4.40
2023-07-25T12:57:22.409Z,5.60
2023-07-25T13:00:04.030Z,6.50
2023-07-25T13:02:45.560Z,5.50
2023-07-25T13:05:21.669Z,6.00
2023-07-25T13:07:54.745Z,9.50
2023-07-25T13:10:27.752Z,6.30
2023-07-25T13:13:10.876Z,14.00
2023-07-25T13:15:45.893Z,7.20
2023-07-25T13:18:38.954Z,6.70
2023-07-25T13:21:11.939Z,10.70
2023-07-25T13:23:44.628Z,7.80
2023-07-25T13:26:21.181Z,7.40
2023-07-25T13:28:54.508Z,8.10
2023-07-25T13:31:42.462Z,5.20
2023-07-25T13:34:16.346Z,6.80
2023-07-25T13:36:52.915Z,9.30
2023-07-25T13:39:28.254Z,46.60
2023-07-25T13:42:01.550Z,10.60
2023-07-25T13:44:40.982Z,6.70
2023-07-25T13:47:15.450Z,7.00
2023-07-25T13:49:43.482Z,7.80
2023-07-25T13:52:16.334Z,6.30
2023-07-25T13:54:48.942Z,6.60
2023-07-25T13:57:52.577Z,8.00
2023-07-25T14:00:28.171Z,7.10
2023-07-25T14:03:04.591Z,7.80
2023-07-25T14:05:35.727Z,8.20
2023-07-25T14:08:11.874Z,7.30
2023-07-25T14:10:45.015Z,6.40
2023-07-25T14:13:15.921Z,8.60
2023-07-25T14:15:52.396Z,8.50
2023-07-25T14:18:31.712Z,6.50
2023-07-25T14:21:05.520Z,8.70
2023-07-25T14:23:37.483Z,6.90
2023-07-25T14:26:08.331Z,5.70
2023-07-25T14:28:42.542Z,7.10
2023-07-25T14:31:10.751Z,9.20
2023-07-25T14:33:43.602Z,8.30
2023-07-25T14:36:14.770Z,6.30
2023-07-25T14:38:44.147Z,8.80
2023-07-25T14:41:22.674Z,7.10
2023-07-25T14:44:03.948Z,9.20
2023-07-25T14:46:32.662Z,6.40
2023-07-25T14:49:01.021Z,5.40
2023-07-25T14:51:29.293Z,8.40
2023-07-25T14:54:02.079Z,6.70
2023-07-25T14:56:43.979Z,8.60
2023-07-25T14:59:16.886Z,6.00
2023-07-25T15:01:52.202Z,6.30
2023-07-25T15:04:28.055Z,11.60
2023-07-25T15:07:02.784Z,9.30
2023-07-25T15:09:35.873Z,8.70
2023-07-25T15:12:21.262Z,8.30
2023-07-25T15:14:50.657Z,7.40
2023-07-25T15:17:26.769Z,7.70
2023-07-25T15:20:07.266Z,9.70
2023-07-25T15:23:00.447Z,11.70
2023-07-25T15:25:34.868Z,7.20
2023-07-25T15:28:14.310Z,8.70
2023-07-25T15:30:58.117Z,6.80
2023-07-25T15:33:26.055Z,6.50
2023-07-25T15:35:56.145Z,7.30
2023-07-25T15:38:24.219Z,10.20
2023-07-25T15:40:54.868Z,10.10
2023-07-25T15:43:27.732Z,10.20
2023-07-25T15:46:26.966Z,8.70
2023-07-25T15:49:05.807Z,6.10
2023-07-25T15:51:38.745Z,6.20
2023-07-25T15:54:11.936Z,12.30
2023-07-25T15:56:46.782Z,12.10
2023-07-25T15:59:23.753Z,11.80
2023-07-25T16:02:04.221Z,9.60
2023-07-25T16:04:35.668Z,11.30
2023-07-25T16:07:19.515Z,9.00
2023-07-25T16:09:53.361Z,11.10
2023-07-25T16:12:39.616Z,7.10
2023-07-25T16:15:11.992Z,7.00
2023-07-25T16:17:43.083Z,6.80
2023-07-25T16:20:16.967Z,9.40
2023-07-25T16:22:49.830Z,6.90
2023-07-25T16:25:25.812Z,7.80
2023-07-25T16:27:59.288Z,6.20
2023-07-25T16:30:33.760Z,9.30
2023-07-25T16:33:06.843Z,6.90
2023-07-25T16:35:34.872Z,9.10
2023-07-25T16:38:17.085Z,6.60
2023-07-25T16:40:55.799Z,8.40
2023-07-25T16:43:27.748Z,7.50
2023-07-25T16:46:03.634Z,10.00
2023-07-25T16:48:50.052Z,7.50
2023-07-25T16:51:30.547Z,6.80
2023-07-25T16:54:02.038Z,7.40
2023-07-25T16:56:41.374Z,7.30
2023-07-25T16:59:27.789Z,9.10
2023-07-25T17:02:04.016Z,9.20
2023-07-25T17:04:32.132Z,7.50
2023-07-25T17:07:03.252Z,12.30
2023-07-25T17:09:53.251Z,7.80
2023-07-25T17:12:34.129Z,8.20
2023-07-25T17:15:07.317Z,6.80
2023-07-25T17:17:37.669Z,8.70
2023-07-25T17:20:10.414Z,10.70
2023-07-25T17:22:43.615Z,8.30
2023-07-25T17:25:19.375Z,7.70
2023-07-25T17:27:55.084Z,6.00
2023-07-25T17:30:29.349Z,8.00
2023-07-25T17:33:02.265Z,9.40
2023-07-25T17:35:37.567Z,8.80
2023-07-25T17:38:13.907Z,6.50
2023-07-25T17:40:47.232Z,6.10
2023-07-25T17:43:21.569Z,7.60
2023-07-25T17:46:07.061Z,8.30
2023-07-25T17:48:58.148Z,6.30
2023-07-25T17:51:33.395Z,7.60
2023-07-25T17:54:07.603Z,7.20
2023-07-25T17:56:40.905Z,8.00
2023-07-25T17:59:15.748Z,9.70
2023-07-25T18:02:01.314Z,8.50
2023-07-25T18:04:34.710Z,9.10
2023-07-25T18:07:06.178Z,9.60
2023-07-25T18:09:41.007Z,9.10
2023-07-25T18:12:15.738Z,8.50
2023-07-25T18:14:54.164Z,6.90
2023-07-25T18:17:39.113Z,8.00
2023-07-25T18:22:41.724Z,10.20
2023-07-25T18:25:18.999Z,8.40
2023-07-25T18:27:47.614Z,8.10
2023-07-25T18:30:20.472Z,5.70
2023-07-25T18:33:06.795Z,10.80
2023-07-25T18:35:38.289Z,8.80
2023-07-25T18:38:11.920Z,9.50
2023-07-25T18:40:50.655Z,7.50
2023-07-25T18:43:23.022Z,8.30
2023-07-25T18:45:55.809Z,7.50
2023-07-25T18:48:36.396Z,8.00
2023-07-25T18:51:09.765Z,8.20
2023-07-25T18:53:53.344Z,7.50
2023-07-25T18:56:21.487Z,8.60
2023-07-25T18:58:52.321Z,8.20
2023-07-25T19:01:24.514Z,9.50
2023-07-25T19:03:55.530Z,7.50
2023-07-25T19:06:29.342Z,7.80
2023-07-25T19:09:02.119Z,7.80
2023-07-25T19:13:57.848Z,9.80
2023-07-25T19:16:31.947Z,8.70
2023-07-25T19:19:07.446Z,7.00
2023-07-25T19:21:35.490Z,10.00
2023-07-25T19:24:07.658Z,8.60
2023-07-25T19:26:39.304Z,7.70
2023-07-25T19:29:20.091Z,7.80
2023-07-25T19:31:47.948Z,8.40
2023-07-25T19:34:16.555Z,11.70
2023-07-25T19:36:48.412Z,6.50
2023-07-25T19:39:21.591Z,8.20
2023-07-25T19:42:00.721Z,9.20
2023-07-25T19:44:43.949Z,6.70
2023-07-25T19:47:18.891Z,6.80
2023-07-25T19:49:46.890Z,7.90
2023-07-25T19:52:26.516Z,5.80
2023-07-25T19:55:06.865Z,7.20
2023-07-25T19:57:39.637Z,7.80
2023-07-25T20:00:15.010Z,6.80
2023-07-25T20:02:48.925Z,5.70
2023-07-25T20:05:16.977Z,5.20
2023-07-25T20:08:02.447Z,5.50
2023-07-25T20:10:30.658Z,7.10
2023-07-25T20:12:59.869Z,6.20
2023-07-25T20:15:33.544Z,7.60
2023-07-25T20:18:11.383Z,5.50
2023-07-25T20:20:44.635Z,5.80
2023-07-25T20:23:14.746Z,7.10
2023-07-25T20:25:42.722Z,7.00
2023-07-25T20:28:14.676Z,8.00
2023-07-25T20:30:47.568Z,8.40
2023-07-25T20:36:13.918Z,6.60
2023-07-25T20:38:48.198Z,6.50
2023-07-25T20:41:17.441Z,5.80
2023-07-25T20:43:50.217Z,6.90
2023-07-25T20:46:31.957Z,7.00
2023-07-25T20:49:05.000Z,5.40
2023-07-25T20:51:44.132Z,5.60
2023-07-25T20:54:15.129Z,6.90
2023-07-25T20:56:50.318Z,8.50
2023-07-25T20:59:21.528Z,5.90
2023-07-25T21:01:49.570Z,5.70
2023-07-25T21:04:22.645Z,7.10
2023-07-25T21:06:59.816Z,10.80
2023-07-25T21:09:49.817Z,6.70
2023-07-25T21:12:36.713Z,6.80
2023-07-25T21:15:18.919Z,5.20
2023-07-25T21:18:02.664Z,5.80
2023-07-25T21:20:40.912Z,7.70
2023-07-25T21:23:13.884Z,5.40
2023-07-25T21:28:15.833Z,5.10
2023-07-25T21:31:01.831Z,6.90
2023-07-25T21:33:44.748Z,7.60
2023-07-25T21:36:27.374Z,7.10
2023-07-25T21:39:01.081Z,6.20
2023-07-25T21:41:36.756Z,5.40
2023-07-25T21:44:10.022Z,5.80
2023-07-25T21:46:46.047Z,7.50
2023-07-25T21:49:22.958Z,6.60
2023-07-25T21:51:56.866Z,5.00
2023-07-25T21:54:38.772Z,6.00
2023-07-25T21:57:09.205Z,6.90
2023-07-25T21:59:42.487Z,4.70
2023-07-25T22:02:22.951Z,5.70
2023-07-25T22:05:06.290Z,4.90
2023-07-25T22:07:38.858Z,6.20
2023-07-25T22:10:07.650Z,9.90
2023-07-25T22:12:42.901Z,7.00
2023-07-25T22:15:24.103Z,5.90
2023-07-25T22:17:57.126Z,6.50
2023-07-25T22:20:50.995Z,5.50
2023-07-25T22:23:30.884Z,6.60
2023-07-25T22:26:04.186Z,5.00
2023-07-25T22:28:46.105Z,6.70
2023-07-25T22:31:19.597Z,7.00
2023-07-25T22:33:52.360Z,6.90
2023-07-25T22:38:50.884Z,6.70
2023-07-25T22:41:28.359Z,7.90
2023-07-25T22:44:04.345Z,5.50
2023-07-25T22:46:40.074Z,5.80
2023-07-25T22:49:16.555Z,5.70
2023-07-25T22:51:44.814Z,5.30
2023-07-25T22:54:16.747Z,6.10
2023-07-25T22:56:58.991Z,5.30
2023-07-25T22:59:37.210Z,7.70
2023-07-25T23:02:09.991Z,5.60
2023-07-25T23:04:56.174Z,6.80
2023-07-25T23:10:11.882Z,6.40
2023-07-25T23:12:46.227Z,6.70
2023-07-25T23:15:19.597Z,12.90
2023-07-25T23:17:52.813Z,5.90
2023-07-25T23:20:23.544Z,8.50
2023-07-25T23:22:58.361Z,5.90
2023-07-25T23:25:28.474Z,6.70
2023-07-25T23:27:58.925Z,5.60
2023-07-25T23:30:38.346Z,6.30
2023-07-25T23:33:29.729Z,5.60
2023-07-25T23:36:02.764Z,6.50
2023-07-25T23:38:33.631Z,6.50
2023-07-25T23:41:06.398Z,8.00
2023-07-25T23:43:37.989Z,7.70
2023-07-25T23:46:14.853Z,6.40
2023-07-25T23:48:56.302Z,7.00
2023-07-25T23:51:32.561Z,7.30
2023-07-25T23:54:06.467Z,6.50
2023-07-25T23:56:45.195Z,6.00
2023-07-25T23:59:28.982Z,8.60
